sensor_id;sensor_type;location;lat;lon;timestamp;P1;durP1;ratioP1;P2;durP2;ratioP2
54977;SDS011;40873;47.522;19.106;2023-02-15T00:01:07;37.95;;;16.83;;
54977;SDS011;40873;47.522;19.106;2023-02-15T00:03:35;40.15;;;18.27;;
54977;SDS011;40873;47.522;19.106;2023-02-15T00:06:03;40.40;;;16.17;;
54977;SDS011;40873;47.522;19.106;2023-02-15T00:08:31;37.28;;;17.67;;
54977;SDS011;40873;47.522;19.106;2023-02-15T00:11:08;40.53;;;17.25;;
54977;SDS011;40873;47.522;19.106;2023-02-15T00:13:37;41.40;;;18.48;;
54977;SDS011;40873;47.522;19.106;2023-02-15T00:16:11;42.28;;;17.95;;
54977;SDS011;40873;47.522;19.106;2023-02-15T00:18:39;41.60;;;17.33;;
54977;SDS011;40873;47.522;19.106;2023-02-15T00:21:07;46.38;;;19.27;;
54977;SDS011;40873;47.522;19.106;2023-02-15T00:23:36;41.60;;;18.42;;
54977;SDS011;40873;47.522;19.106;2023-02-15T00:26:04;42.08;;;17.33;;
54977;SDS011;40873;47.522;19.106;2023-02-15T00:28:32;40.97;;;17.67;;
54977;SDS011;40873;47.522;19.106;2023-02-15T00:31:03;44.63;;;17.30;;
54977;SDS011;40873;47.522;19.106;2023-02-15T00:33:30;35.03;;;17.13;;
54977;SDS011;40873;47.522;19.106;2023-02-15T00:35:57;34.83;;;16.20;;
54977;SDS011;40873;47.522;19.106;2023-02-15T00:38:26;44.58;;;19.58;;
54977;SDS011;40873;47.522;19.106;2023-02-15T00:40:55;39.15;;;18.80;;
54977;SDS011;40873;47.522;19.106;2023-02-15T00:43:23;38.72;;;17.75;;
54977;SDS011;40873;47.522;19.106;2023-02-15T00:45:50;44.00;;;17.98;;
54977;SDS011;40873;47.522;19.106;2023-02-15T00:48:17;41.42;;;18.55;;
54977;SDS011;40873;47.522;19.106;2023-02-15T00:50:45;39.08;;;16.88;;
54977;SDS011;40873;47.522;19.106;2023-02-15T00:53:13;44.28;;;18.25;;
54977;SDS011;40873;47.522;19.106;2023-02-15T00:55:40;41.15;;;17.95;;
54977;SDS011;40873;47.522;19.106;2023-02-15T00:58:10;39.38;;;18.83;;
54977;SDS011;40873;47.522;19.106;2023-02-15T01:00:38;45.20;;;19.33;;
54977;SDS011;40873;47.522;19.106;2023-02-15T01:03:06;35.38;;;17.20;;
54977;SDS011;40873;47.522;19.106;2023-02-15T01:05:33;42.00;;;19.35;;
54977;SDS011;40873;47.522;19.106;2023-02-15T01:08:00;43.10;;;18.38;;
54977;SDS011;40873;47.522;19.106;2023-02-15T01:10:28;39.88;;;16.95;;
54977;SDS011;40873;47.522;19.106;2023-02-15T01:12:55;43.88;;;20.23;;
54977;SDS011;40873;47.522;19.106;2023-02-15T01:15:23;38.67;;;19.05;;
54977;SDS011;40873;47.522;19.106;2023-02-15T01:17:50;38.97;;;17.85;;
54977;SDS011;40873;47.522;19.106;2023-02-15T01:20:23;43.92;;;18.48;;
54977;SDS011;40873;47.522;19.106;2023-02-15T01:22:51;39.50;;;18.55;;
54977;SDS011;40873;47.522;19.106;2023-02-15T01:25:20;47.47;;;17.88;;
54977;SDS011;40873;47.522;19.106;2023-02-15T01:27:49;45.40;;;20.17;;
54977;SDS011;40873;47.522;19.106;2023-02-15T01:30:16;43.30;;;18.75;;
54977;SDS011;40873;47.522;19.106;2023-02-15T01:32:43;45.17;;;18.65;;
54977;SDS011;40873;47.522;19.106;2023-02-15T01:35:10;37.55;;;17.42;;
54977;SDS011;40873;47.522;19.106;2023-02-15T01:37:37;43.97;;;20.50;;
54977;SDS011;40873;47.522;19.106;2023-02-15T01:40:05;46.22;;;18.80;;
54977;SDS011;40873;47.522;19.106;2023-02-15T01:42:35;44.28;;;18.58;;
54977;SDS011;40873;47.522;19.106;2023-02-15T01:45:14;48.33;;;20.55;;
54977;SDS011;40873;47.522;19.106;2023-02-15T01:47:45;47.03;;;20.05;;
54977;SDS011;40873;47.522;19.106;2023-02-15T01:50:17;46.42;;;20.50;;
54977;SDS011;40873;47.522;19.106;2023-02-15T01:55:58;79.13;;;31.17;;
54977;SDS011;40873;47.522;19.106;2023-02-15T01:58:28;68.85;;;28.27;;
54977;SDS011;40873;47.522;19.106;2023-02-15T02:00:56;69.03;;;26.88;;
54977;SDS011;40873;47.522;19.106;2023-02-15T02:03:38;73.13;;;29.92;;
54977;SDS011;40873;47.522;19.106;2023-02-15T02:06:15;71.55;;;28.90;;
54977;SDS011;40873;47.522;19.106;2023-02-15T02:08:43;77.07;;;29.63;;
54977;SDS011;40873;47.522;19.106;2023-02-15T02:11:11;72.70;;;30.85;;
54977;SDS011;40873;47.522;19.106;2023-02-15T02:13:40;77.82;;;30.77;;
54977;SDS011;40873;47.522;19.106;2023-02-15T02:33:46;56.33;;;25.15;;
54977;SDS011;40873;47.522;19.106;2023-02-15T02:36:44;63.00;;;25.17;;
54977;SDS011;40873;47.522;19.106;2023-02-15T02:39:30;69.00;;;25.35;;
54977;SDS011;40873;47.522;19.106;2023-02-15T02:44:43;60.97;;;27.38;;
54977;SDS011;40873;47.522;19.106;2023-02-15T02:47:23;58.38;;;23.80;;
54977;SDS011;40873;47.522;19.106;2023-02-15T02:52:36;49.22;;;21.75;;
54977;SDS011;40873;47.522;19.106;2023-02-15T02:55:29;51.25;;;21.13;;
54977;SDS011;40873;47.522;19.106;2023-02-15T02:58:03;47.60;;;20.75;;
54977;SDS011;40873;47.522;19.106;2023-02-15T03:00:32;52.72;;;21.58;;
54977;SDS011;40873;47.522;19.106;2023-02-15T03:03:12;62.10;;;23.30;;
54977;SDS011;40873;47.522;19.106;2023-02-15T03:06:01;55.78;;;22.23;;
54977;SDS011;40873;47.522;19.106;2023-02-15T03:08:34;54.67;;;23.80;;
54977;SDS011;40873;47.522;19.106;2023-02-15T03:11:04;48.08;;;21.55;;
54977;SDS011;40873;47.522;19.106;2023-02-15T03:13:32;50.35;;;21.55;;
54977;SDS011;40873;47.522;19.106;2023-02-15T03:16:01;55.17;;;21.98;;
54977;SDS011;40873;47.522;19.106;2023-02-15T03:18:51;43.67;;;18.98;;
54977;SDS011;40873;47.522;19.106;2023-02-15T03:23:56;47.45;;;19.13;;
54977;SDS011;40873;47.522;19.106;2023-02-15T03:26:29;41.85;;;18.63;;
54977;SDS011;40873;47.522;19.106;2023-02-15T03:28:56;52.80;;;22.48;;
54977;SDS011;40873;47.522;19.106;2023-02-15T03:31:28;42.53;;;20.88;;
54977;SDS011;40873;47.522;19.106;2023-02-15T03:33:59;52.30;;;22.02;;
54977;SDS011;40873;47.522;19.106;2023-02-15T03:36:33;55.03;;;23.83;;
54977;SDS011;40873;47.522;19.106;2023-02-15T03:39:10;49.05;;;21.75;;
54977;SDS011;40873;47.522;19.106;2023-02-15T03:41:49;45.30;;;22.35;;
54977;SDS011;40873;47.522;19.106;2023-02-15T03:44:30;47.85;;;22.50;;
54977;SDS011;40873;47.522;19.106;2023-02-15T03:47:00;53.65;;;24.65;;
54977;SDS011;40873;47.522;19.106;2023-02-15T03:52:10;51.50;;;20.88;;
54977;SDS011;40873;47.522;19.106;2023-02-15T03:54:39;46.10;;;21.10;;
54977;SDS011;40873;47.522;19.106;2023-02-15T04:00:04;49.28;;;22.60;;
54977;SDS011;40873;47.522;19.106;2023-02-15T04:03:00;49.03;;;21.02;;
54977;SDS011;40873;47.522;19.106;2023-02-15T04:05:37;51.00;;;22.80;;
54977;SDS011;40873;47.522;19.106;2023-02-15T04:08:04;55.20;;;23.85;;
54977;SDS011;40873;47.522;19.106;2023-02-15T04:10:31;57.85;;;24.52;;
54977;SDS011;40873;47.522;19.106;2023-02-15T04:13:17;50.55;;;24.15;;
54977;SDS011;40873;47.522;19.106;2023-02-15T04:15:47;58.72;;;24.08;;
54977;SDS011;40873;47.522;19.106;2023-02-15T04:18:36;58.25;;;23.55;;
54977;SDS011;40873;47.522;19.106;2023-02-15T04:21:27;53.78;;;23.48;;
54977;SDS011;40873;47.522;19.106;2023-02-15T04:24:13;57.78;;;23.55;;
54977;SDS011;40873;47.522;19.106;2023-02-15T04:27:00;46.33;;;23.58;;
54977;SDS011;40873;47.522;19.106;2023-02-15T04:29:30;55.50;;;23.00;;
54977;SDS011;40873;47.522;19.106;2023-02-15T04:31:58;51.65;;;23.40;;
54977;SDS011;40873;47.522;19.106;2023-02-15T04:34:28;50.05;;;22.80;;
54977;SDS011;40873;47.522;19.106;2023-02-15T04:36:55;58.25;;;22.50;;
54977;SDS011;40873;47.522;19.106;2023-02-15T04:39:22;57.85;;;24.17;;
54977;SDS011;40873;47.522;19.106;2023-02-15T04:41:49;50.15;;;22.25;;
54977;SDS011;40873;47.522;19.106;2023-02-15T04:44:16;54.65;;;23.15;;
54977;SDS011;40873;47.522;19.106;2023-02-15T04:46:42;55.38;;;25.27;;
54977;SDS011;40873;47.522;19.106;2023-02-15T04:49:10;49.78;;;22.70;;
54977;SDS011;40873;47.522;19.106;2023-02-15T04:51:36;49.22;;;22.20;;
54977;SDS011;40873;47.522;19.106;2023-02-15T04:54:07;48.88;;;21.48;;
54977;SDS011;40873;47.522;19.106;2023-02-15T04:56:34;50.92;;;22.40;;
54977;SDS011;40873;47.522;19.106;2023-02-15T04:59:04;53.65;;;23.08;;
54977;SDS011;40873;47.522;19.106;2023-02-15T05:01:34;50.60;;;22.83;;
54977;SDS011;40873;47.522;19.106;2023-02-15T05:04:01;49.95;;;21.75;;
54977;SDS011;40873;47.522;19.106;2023-02-15T05:06:29;47.33;;;21.40;;
54977;SDS011;40873;47.522;19.106;2023-02-15T05:08:56;54.03;;;22.88;;
54977;SDS011;40873;47.522;19.106;2023-02-15T05:11:25;56.55;;;21.73;;
54977;SDS011;40873;47.522;19.106;2023-02-15T05:13:53;54.40;;;22.27;;
54977;SDS011;40873;47.522;19.106;2023-02-15T05:16:20;53.45;;;23.05;;
54977;SDS011;40873;47.522;19.106;2023-02-15T05:18:55;50.58;;;23.48;;
54977;SDS011;40873;47.522;19.106;2023-02-15T05:21:25;52.67;;;23.85;;
54977;SDS011;40873;47.522;19.106;2023-02-15T05:23:52;49.47;;;22.67;;
54977;SDS011;40873;47.522;19.106;2023-02-15T05:26:21;47.40;;;21.90;;
54977;SDS011;40873;47.522;19.106;2023-02-15T05:29:08;44.58;;;19.60;;
54977;SDS011;40873;47.522;19.106;2023-02-15T05:31:35;42.58;;;20.88;;
54977;SDS011;40873;47.522;19.106;2023-02-15T05:34:03;41.92;;;20.48;;
54977;SDS011;40873;47.522;19.106;2023-02-15T05:36:30;48.65;;;21.10;;
54977;SDS011;40873;47.522;19.106;2023-02-15T05:38:57;50.38;;;22.00;;
54977;SDS011;40873;47.522;19.106;2023-02-15T05:41:24;43.50;;;21.23;;
54977;SDS011;40873;47.522;19.106;2023-02-15T05:43:54;51.65;;;23.00;;
54977;SDS011;40873;47.522;19.106;2023-02-15T05:46:21;53.30;;;24.17;;
54977;SDS011;40873;47.522;19.106;2023-02-15T05:48:48;47.65;;;22.85;;
54977;SDS011;40873;47.522;19.106;2023-02-15T05:51:15;49.25;;;24.10;;
54977;SDS011;40873;47.522;19.106;2023-02-15T05:53:43;54.17;;;24.83;;
54977;SDS011;40873;47.522;19.106;2023-02-15T05:56:10;54.33;;;23.48;;
54977;SDS011;40873;47.522;19.106;2023-02-15T05:58:39;43.33;;;19.80;;
54977;SDS011;40873;47.522;19.106;2023-02-15T06:01:11;43.40;;;20.67;;
54977;SDS011;40873;47.522;19.106;2023-02-15T06:03:39;53.78;;;22.83;;
54977;SDS011;40873;47.522;19.106;2023-02-15T06:06:06;43.97;;;21.85;;
54977;SDS011;40873;47.522;19.106;2023-02-15T06:08:34;44.88;;;21.15;;
54977;SDS011;40873;47.522;19.106;2023-02-15T06:11:05;42.17;;;21.33;;
54977;SDS011;40873;47.522;19.106;2023-02-15T06:13:33;47.85;;;20.02;;
54977;SDS011;40873;47.522;19.106;2023-02-15T06:16:04;47.08;;;20.17;;
54977;SDS011;40873;47.522;19.106;2023-02-15T06:18:31;43.97;;;19.52;;
54977;SDS011;40873;47.522;19.106;2023-02-15T06:20:58;55.08;;;22.15;;
54977;SDS011;40873;47.522;19.106;2023-02-15T06:23:25;45.45;;;21.85;;
54977;SDS011;40873;47.522;19.106;2023-02-15T06:25:52;45.50;;;20.10;;
54977;SDS011;40873;47.522;19.106;2023-02-15T06:28:20;52.22;;;21.45;;
54977;SDS011;40873;47.522;19.106;2023-02-15T06:30:46;49.35;;;20.70;;
54977;SDS011;40873;47.522;19.106;2023-02-15T06:33:14;52.38;;;19.35;;
54977;SDS011;40873;47.522;19.106;2023-02-15T06:35:40;46.10;;;20.27;;
54977;SDS011;40873;47.522;19.106;2023-02-15T06:38:08;42.97;;;21.17;;
54977;SDS011;40873;47.522;19.106;2023-02-15T06:40:34;53.90;;;21.15;;
54977;SDS011;40873;47.522;19.106;2023-02-15T06:43:01;52.53;;;22.05;;
54977;SDS011;40873;47.522;19.106;2023-02-15T06:45:28;55.55;;;22.95;;
54977;SDS011;40873;47.522;19.106;2023-02-15T06:47:55;55.70;;;24.85;;
54977;SDS011;40873;47.522;19.106;2023-02-15T06:50:22;52.08;;;25.75;;
54977;SDS011;40873;47.522;19.106;2023-02-15T06:52:54;58.80;;;28.40;;
54977;SDS011;40873;47.522;19.106;2023-02-15T06:55:22;53.65;;;23.77;;
54977;SDS011;40873;47.522;19.106;2023-02-15T06:57:49;53.33;;;24.05;;
54977;SDS011;40873;47.522;19.106;2023-02-15T07:00:16;54.40;;;24.05;;
54977;SDS011;40873;47.522;19.106;2023-02-15T07:02:44;45.83;;;21.38;;
54977;SDS011;40873;47.522;19.106;2023-02-15T07:05:11;44.63;;;19.27;;
54977;SDS011;40873;47.522;19.106;2023-02-15T07:07:38;48.70;;;20.90;;
54977;SDS011;40873;47.522;19.106;2023-02-15T07:10:05;44.10;;;21.90;;
54977;SDS011;40873;47.522;19.106;2023-02-15T07:12:33;47.05;;;20.05;;
54977;SDS011;40873;47.522;19.106;2023-02-15T07:15:10;44.42;;;19.80;;
54977;SDS011;40873;47.522;19.106;2023-02-15T07:17:39;44.15;;;20.55;;
54977;SDS011;40873;47.522;19.106;2023-02-15T07:20:39;39.60;;;17.10;;
54977;SDS011;40873;47.522;19.106;2023-02-15T07:23:04;35.47;;;17.52;;
54977;SDS011;40873;47.522;19.106;2023-02-15T07:25:31;42.08;;;18.27;;
54977;SDS011;40873;47.522;19.106;2023-02-15T07:27:58;47.72;;;20.58;;
54977;SDS011;40873;47.522;19.106;2023-02-15T07:30:27;44.47;;;17.75;;
54977;SDS011;40873;47.522;19.106;2023-02-15T07:32:57;32.88;;;16.17;;
54977;SDS011;40873;47.522;19.106;2023-02-15T07:35:53;35.13;;;15.35;;
54977;SDS011;40873;47.522;19.106;2023-02-15T07:38:22;38.53;;;15.48;;
54977;SDS011;40873;47.522;19.106;2023-02-15T07:40:50;33.90;;;14.43;;
54977;SDS011;40873;47.522;19.106;2023-02-15T07:43:17;35.20;;;14.23;;
54977;SDS011;40873;47.522;19.106;2023-02-15T07:45:44;31.67;;;14.98;;
54977;SDS011;40873;47.522;19.106;2023-02-15T07:48:11;30.30;;;13.48;;
54977;SDS011;40873;47.522;19.106;2023-02-15T07:50:38;33.72;;;14.02;;
54977;SDS011;40873;47.522;19.106;2023-02-15T07:53:05;36.45;;;15.38;;
54977;SDS011;40873;47.522;19.106;2023-02-15T07:55:32;31.73;;;13.40;;
54977;SDS011;40873;47.522;19.106;2023-02-15T07:57:59;29.55;;;12.48;;
54977;SDS011;40873;47.522;19.106;2023-02-15T08:00:26;27.60;;;14.75;;
54977;SDS011;40873;47.522;19.106;2023-02-15T08:02:54;33.80;;;13.82;;
54977;SDS011;40873;47.522;19.106;2023-02-15T08:05:40;32.28;;;14.60;;
54977;SDS011;40873;47.522;19.106;2023-02-15T08:08:09;38.40;;;15.88;;
54977;SDS011;40873;47.522;19.106;2023-02-15T08:14:01;37.63;;;15.82;;
54977;SDS011;40873;47.522;19.106;2023-02-15T08:21:47;33.55;;;14.38;;
54977;SDS011;40873;47.522;19.106;2023-02-15T08:24:24;31.67;;;13.90;;
54977;SDS011;40873;47.522;19.106;2023-02-15T08:26:56;35.17;;;15.95;;
54977;SDS011;40873;47.522;19.106;2023-02-15T08:29:32;33.85;;;14.73;;
54977;SDS011;40873;47.522;19.106;2023-02-15T08:32:07;38.70;;;17.15;;
54977;SDS011;40873;47.522;19.106;2023-02-15T08:34:38;38.03;;;17.93;;
54977;SDS011;40873;47.522;19.106;2023-02-15T08:37:07;39.47;;;17.98;;
54977;SDS011;40873;47.522;19.106;2023-02-15T08:39:37;43.78;;;16.27;;
54977;SDS011;40873;47.522;19.106;2023-02-15T08:42:04;36.67;;;17.40;;
54977;SDS011;40873;47.522;19.106;2023-02-15T08:44:31;34.88;;;15.80;;
54977;SDS011;40873;47.522;19.106;2023-02-15T08:46:58;40.13;;;17.52;;
54977;SDS011;40873;47.522;19.106;2023-02-15T08:49:30;35.30;;;16.58;;
54977;SDS011;40873;47.522;19.106;2023-02-15T08:51:57;42.08;;;18.17;;
54977;SDS011;40873;47.522;19.106;2023-02-15T08:54:27;37.45;;;19.25;;
54977;SDS011;40873;47.522;19.106;2023-02-15T08:56:54;42.42;;;18.38;;
54977;SDS011;40873;47.522;19.106;2023-02-15T08:59:22;42.58;;;20.05;;
54977;SDS011;40873;47.522;19.106;2023-02-15T09:01:50;46.17;;;21.35;;
54977;SDS011;40873;47.522;19.106;2023-02-15T09:04:18;46.88;;;20.52;;
54977;SDS011;40873;47.522;19.106;2023-02-15T09:06:48;43.88;;;21.17;;
54977;SDS011;40873;47.522;19.106;2023-02-15T09:09:17;44.35;;;19.98;;
54977;SDS011;40873;47.522;19.106;2023-02-15T09:11:45;43.90;;;19.67;;
54977;SDS011;40873;47.522;19.106;2023-02-15T09:14:16;65.07;;;19.45;;
54977;SDS011;40873;47.522;19.106;2023-02-15T09:16:48;40.33;;;20.70;;
54977;SDS011;40873;47.522;19.106;2023-02-15T09:19:18;42.13;;;19.55;;
54977;SDS011;40873;47.522;19.106;2023-02-15T09:21:46;43.38;;;18.92;;
54977;SDS011;40873;47.522;19.106;2023-02-15T09:24:14;43.38;;;20.60;;
54977;SDS011;40873;47.522;19.106;2023-02-15T09:26:46;44.80;;;17.98;;
54977;SDS011;40873;47.522;19.106;2023-02-15T09:29:14;39.65;;;19.77;;
54977;SDS011;40873;47.522;19.106;2023-02-15T09:31:44;42.45;;;20.42;;
54977;SDS011;40873;47.522;19.106;2023-02-15T09:34:13;29.45;;;14.65;;
54977;SDS011;40873;47.522;19.106;2023-02-15T09:36:48;38.97;;;18.83;;
54977;SDS011;40873;47.522;19.106;2023-02-15T09:39:20;41.92;;;20.48;;
54977;SDS011;40873;47.522;19.106;2023-02-15T09:56:11;32.75;;;16.17;;
54977;SDS011;40873;47.522;19.106;2023-02-15T10:04:26;32.63;;;15.98;;
54977;SDS011;40873;47.522;19.106;2023-02-15T10:10:08;32.50;;;16.88;;
54977;SDS011;40873;47.522;19.106;2023-02-15T10:12:48;32.30;;;15.98;;
54977;SDS011;40873;47.522;19.106;2023-02-15T10:18:11;34.30;;;15.95;;
54977;SDS011;40873;47.522;19.106;2023-02-15T10:24:11;30.27;;;14.95;;
54977;SDS011;40873;47.522;19.106;2023-02-15T10:26:48;27.02;;;13.02;;
54977;SDS011;40873;47.522;19.106;2023-02-15T10:32:00;29.75;;;12.38;;
54977;SDS011;40873;47.522;19.106;2023-02-15T10:43:42;30.20;;;13.48;;
54977;SDS011;40873;47.522;19.106;2023-02-15T10:54:28;29.17;;;12.38;;
54977;SDS011;40873;47.522;19.106;2023-02-15T11:00:27;30.45;;;15.48;;
54977;SDS011;40873;47.522;19.106;2023-02-15T11:03:56;32.35;;;15.75;;
54977;SDS011;40873;47.522;19.106;2023-02-15T11:06:03;30.92;;;14.30;;
54977;SDS011;40873;47.522;19.106;2023-02-15T11:08:34;24.33;;;12.20;;
54977;SDS011;40873;47.522;19.106;2023-02-15T11:11:07;31.50;;;15.60;;
54977;SDS011;40873;47.522;19.106;2023-02-15T11:13:40;30.77;;;16.00;;
54977;SDS011;40873;47.522;19.106;2023-02-15T11:16:16;38.33;;;15.68;;
54977;SDS011;40873;47.522;19.106;2023-02-15T11:19:01;32.00;;;16.35;;
54977;SDS011;40873;47.522;19.106;2023-02-15T11:21:39;31.27;;;15.38;;
54977;SDS011;40873;47.522;19.106;2023-02-15T11:24:14;32.45;;;16.25;;
54977;SDS011;40873;47.522;19.106;2023-02-15T11:26:49;33.10;;;15.80;;
54977;SDS011;40873;47.522;19.106;2023-02-15T11:29:40;34.65;;;15.38;;
54977;SDS011;40873;47.522;19.106;2023-02-15T11:35:02;36.33;;;17.27;;
54977;SDS011;40873;47.522;19.106;2023-02-15T11:40:21;31.50;;;15.23;;
54977;SDS011;40873;47.522;19.106;2023-02-15T11:42:53;35.35;;;16.90;;
54977;SDS011;40873;47.522;19.106;2023-02-15T11:47:57;33.25;;;16.88;;
54977;SDS011;40873;47.522;19.106;2023-02-15T11:50:27;34.58;;;18.05;;
54977;SDS011;40873;47.522;19.106;2023-02-15T11:53:01;33.80;;;17.20;;
54977;SDS011;40873;47.522;19.106;2023-02-15T11:55:32;37.30;;;17.15;;
54977;SDS011;40873;47.522;19.106;2023-02-15T12:00:52;36.67;;;17.30;;
54977;SDS011;40873;47.522;19.106;2023-02-15T12:06:46;28.45;;;13.30;;
54977;SDS011;40873;47.522;19.106;2023-02-15T12:11:49;28.38;;;12.93;;
54977;SDS011;40873;47.522;19.106;2023-02-15T12:14:15;30.25;;;14.40;;
54977;SDS011;40873;47.522;19.106;2023-02-15T12:16:51;30.65;;;13.25;;
54977;SDS011;40873;47.522;19.106;2023-02-15T12:21:58;28.63;;;14.27;;
54977;SDS011;40873;47.522;19.106;2023-02-15T12:24:28;28.52;;;12.75;;
54977;SDS011;40873;47.522;19.106;2023-02-15T12:29:31;36.13;;;17.13;;
54977;SDS011;40873;47.522;19.106;2023-02-15T12:32:16;32.40;;;15.27;;
54977;SDS011;40873;47.522;19.106;2023-02-15T12:34:56;33.30;;;14.50;;
54977;SDS011;40873;47.522;19.106;2023-02-15T12:37:29;29.50;;;14.32;;
54977;SDS011;40873;47.522;19.106;2023-02-15T12:39:59;34.65;;;14.50;;
54977;SDS011;40873;47.522;19.106;2023-02-15T12:42:41;31.45;;;14.48;;
54977;SDS011;40873;47.522;19.106;2023-02-15T12:48:18;39.20;;;17.35;;
54977;SDS011;40873;47.522;19.106;2023-02-15T12:50:50;36.97;;;17.55;;
54977;SDS011;40873;47.522;19.106;2023-02-15T12:53:22;36.47;;;18.10;;
54977;SDS011;40873;47.522;19.106;2023-02-15T12:56:01;40.42;;;17.45;;
54977;SDS011;40873;47.522;19.106;2023-02-15T12:58:34;35.38;;;17.60;;
54977;SDS011;40873;47.522;19.106;2023-02-15T13:01:03;33.67;;;16.15;;
54977;SDS011;40873;47.522;19.106;2023-02-15T13:06:46;34.78;;;15.63;;
54977;SDS011;40873;47.522;19.106;2023-02-15T13:09:17;37.03;;;17.42;;
54977;SDS011;40873;47.522;19.106;2023-02-15T13:11:51;37.67;;;18.23;;
54977;SDS011;40873;47.522;19.106;2023-02-15T13:14:32;29.88;;;14.18;;
54977;SDS011;40873;47.522;19.106;2023-02-15T13:17:01;23.92;;;11.52;;
54977;SDS011;40873;47.522;19.106;2023-02-15T13:19:43;37.85;;;16.38;;
54977;SDS011;40873;47.522;19.106;2023-02-15T13:22:17;22.83;;;11.02;;
54977;SDS011;40873;47.522;19.106;2023-02-15T13:24:50;40.97;;;13.95;;
54977;SDS011;40873;47.522;19.106;2023-02-15T13:27:23;37.47;;;14.48;;
54977;SDS011;40873;47.522;19.106;2023-02-15T13:29:56;37.30;;;14.98;;
54977;SDS011;40873;47.522;19.106;2023-02-15T13:32:35;32.67;;;14.82;;
54977;SDS011;40873;47.522;19.106;2023-02-15T13:35:06;33.67;;;15.45;;
54977;SDS011;40873;47.522;19.106;2023-02-15T13:40:40;19.17;;;7.55;;
54977;SDS011;40873;47.522;19.106;2023-02-15T13:43:28;34.45;;;13.48;;
54977;SDS011;40873;47.522;19.106;2023-02-15T13:52:04;30.45;;;12.80;;
54977;SDS011;40873;47.522;19.106;2023-02-15T13:54:51;29.98;;;13.30;;
54977;SDS011;40873;47.522;19.106;2023-02-15T14:03:16;29.38;;;12.13;;
54977;SDS011;40873;47.522;19.106;2023-02-15T14:19:51;16.48;;;8.13;;
54977;SDS011;40873;47.522;19.106;2023-02-15T14:25:11;39.47;;;14.07;;
54977;SDS011;40873;47.522;19.106;2023-02-15T14:28:14;33.85;;;13.77;;
54977;SDS011;40873;47.522;19.106;2023-02-15T14:30:43;35.53;;;16.88;;
54977;SDS011;40873;47.522;19.106;2023-02-15T14:35:40;29.98;;;14.20;;
54977;SDS011;40873;47.522;19.106;2023-02-15T14:40:54;37.58;;;15.30;;
54977;SDS011;40873;47.522;19.106;2023-02-15T14:46:03;33.95;;;14.50;;
54977;SDS011;40873;47.522;19.106;2023-02-15T14:48:49;41.05;;;15.85;;
54977;SDS011;40873;47.522;19.106;2023-02-15T14:52:20;33.63;;;15.30;;
54977;SDS011;40873;47.522;19.106;2023-02-15T14:56:44;32.67;;;15.55;;
54977;SDS011;40873;47.522;19.106;2023-02-15T14:59:21;38.67;;;15.85;;
54977;SDS011;40873;47.522;19.106;2023-02-15T15:01:57;31.65;;;14.35;;
54977;SDS011;40873;47.522;19.106;2023-02-15T15:04:29;29.95;;;12.93;;
54977;SDS011;40873;47.522;19.106;2023-02-15T15:07:23;18.67;;;10.48;;
54977;SDS011;40873;47.522;19.106;2023-02-15T15:12:45;41.10;;;16.67;;
54977;SDS011;40873;47.522;19.106;2023-02-15T15:17:59;33.63;;;15.35;;
54977;SDS011;40873;47.522;19.106;2023-02-15T15:23:33;34.88;;;14.93;;
54977;SDS011;40873;47.522;19.106;2023-02-15T15:26:20;35.63;;;15.32;;
54977;SDS011;40873;47.522;19.106;2023-02-15T15:50:35;36.55;;;16.55;;
54977;SDS011;40873;47.522;19.106;2023-02-15T15:53:10;34.13;;;15.13;;
54977;SDS011;40873;47.522;19.106;2023-02-15T15:55:47;33.50;;;14.25;;
54977;SDS011;40873;47.522;19.106;2023-02-15T15:58:17;36.10;;;15.65;;
54977;SDS011;40873;47.522;19.106;2023-02-15T16:00:53;32.08;;;15.32;;
54977;SDS011;40873;47.522;19.106;2023-02-15T16:03:26;41.28;;;16.73;;
54977;SDS011;40873;47.522;19.106;2023-02-15T16:05:55;37.28;;;17.85;;
54977;SDS011;40873;47.522;19.106;2023-02-15T16:08:27;34.45;;;17.30;;
54977;SDS011;40873;47.522;19.106;2023-02-15T16:11:00;41.13;;;17.00;;
54977;SDS011;40873;47.522;19.106;2023-02-15T16:13:40;36.65;;;16.23;;
54977;SDS011;40873;47.522;19.106;2023-02-15T16:16:11;42.15;;;18.08;;
54977;SDS011;40873;47.522;19.106;2023-02-15T16:18:39;38.40;;;16.77;;
54977;SDS011;40873;47.522;19.106;2023-02-15T16:21:14;39.38;;;16.27;;
54977;SDS011;40873;47.522;19.106;2023-02-15T16:24:07;33.97;;;16.58;;
54977;SDS011;40873;47.522;19.106;2023-02-15T16:29:47;32.10;;;14.93;;
54977;SDS011;40873;47.522;19.106;2023-02-15T16:32:21;38.03;;;16.25;;
54977;SDS011;40873;47.522;19.106;2023-02-15T16:34:54;41.03;;;16.52;;
54977;SDS011;40873;47.522;19.106;2023-02-15T16:37:24;33.38;;;16.13;;
54977;SDS011;40873;47.522;19.106;2023-02-15T16:39:54;39.17;;;15.50;;
54977;SDS011;40873;47.522;19.106;2023-02-15T16:42:22;36.90;;;15.50;;
54977;SDS011;40873;47.522;19.106;2023-02-15T16:44:51;35.78;;;14.52;;
54977;SDS011;40873;47.522;19.106;2023-02-15T16:47:25;23.88;;;9.88;;
54977;SDS011;40873;47.522;19.106;2023-02-15T16:49:55;36.67;;;15.60;;
54977;SDS011;40873;47.522;19.106;2023-02-15T16:52:26;34.15;;;15.23;;
54977;SDS011;40873;47.522;19.106;2023-02-15T16:54:58;36.13;;;15.60;;
54977;SDS011;40873;47.522;19.106;2023-02-15T16:57:30;32.83;;;15.00;;
54977;SDS011;40873;47.522;19.106;2023-02-15T17:02:34;37.97;;;13.73;;
54977;SDS011;40873;47.522;19.106;2023-02-15T17:05:21;36.40;;;14.68;;
54977;SDS011;40873;47.522;19.106;2023-02-15T17:10:30;38.10;;;14.25;;
54977;SDS011;40873;47.522;19.106;2023-02-15T17:13:01;34.72;;;15.80;;
54977;SDS011;40873;47.522;19.106;2023-02-15T17:15:41;37.45;;;16.10;;
54977;SDS011;40873;47.522;19.106;2023-02-15T17:18:15;31.15;;;14.27;;
54977;SDS011;40873;47.522;19.106;2023-02-15T17:20:45;34.10;;;15.15;;
54977;SDS011;40873;47.522;19.106;2023-02-15T17:25:56;37.90;;;17.52;;
54977;SDS011;40873;47.522;19.106;2023-02-15T17:28:25;37.03;;;15.27;;
54977;SDS011;40873;47.522;19.106;2023-02-15T17:30:57;35.42;;;15.27;;
54977;SDS011;40873;47.522;19.106;2023-02-15T17:33:26;40.13;;;16.20;;
54977;SDS011;40873;47.522;19.106;2023-02-15T17:38:32;38.05;;;14.80;;
54977;SDS011;40873;47.522;19.106;2023-02-15T17:41:03;37.35;;;15.18;;
54977;SDS011;40873;47.522;19.106;2023-02-15T17:43:32;38.83;;;17.15;;
54977;SDS011;40873;47.522;19.106;2023-02-15T17:46:02;36.10;;;15.05;;
54977;SDS011;40873;47.522;19.106;2023-02-15T17:51:02;38.80;;;15.48;;
54977;SDS011;40873;47.522;19.106;2023-02-15T17:53:34;40.70;;;15.82;;
54977;SDS011;40873;47.522;19.106;2023-02-15T17:56:01;36.70;;;15.60;;
54977;SDS011;40873;47.522;19.106;2023-02-15T17:58:36;38.92;;;16.10;;
54977;SDS011;40873;47.522;19.106;2023-02-15T18:01:05;43.10;;;16.85;;
54977;SDS011;40873;47.522;19.106;2023-02-15T18:03:56;39.60;;;16.65;;
54977;SDS011;40873;47.522;19.106;2023-02-15T18:06:41;36.38;;;15.52;;
54977;SDS011;40873;47.522;19.106;2023-02-15T18:09:28;35.58;;;16.35;;